Time;durP1;ratioP1;P1;durP2;ratioP2;P2;SDS_P1;SDS_P2;PMS_P1;PMS_P2;Temp;Humidity;BMP_temperature;BMP_pressure;BME280_temperature;BME280_humidity;BME280_pressure;Samples;Min_cycle;Max_cycle;Signal;HPM_P1;HPM_P2
2023/01/31 00:01:21;;;;;;;21.45;9.95;;;;;;;0.92;100.00;97126.28;5045165;28;20039;-77
2023/01/31 00:03:47;;;;;;;41.58;15.45;;;;;;;0.89;100.00;97118.50;5067456;28;20158;-77
2023/01/31 00:06:24;;;;;;;30.60;12.82;;;;;;;0.87;100.00;97115.03;5064191;28;20098;-76
2023/01/31 00:08:50;;;;;;;30.92;13.48;;;;;;;0.83;100.00;97097.63;5055713;28;20064;-78
2023/01/31 00:11:34;;;;;;;33.72;13.32;;;;;;;0.82;100.00;97095.88;5037286;28;20093;-77
2023/01/31 00:14:02;;;;;;;28.98;11.23;;;;;;;0.88;100.00;97096.56;5044067;28;20028;-77
2023/01/31 00:16:27;;;;;;;23.73;9.52;;;;;;;0.93;100.00;97085.88;5058617;28;20306;-76
2023/01/31 00:18:53;;;;;;;23.75;11.52;;;;;;;0.92;100.00;97085.00;5059566;28;20031;-76
2023/01/31 00:21:24;;;;;;;18.58;8.65;;;;;;;1.08;100.00;97088.00;5056485;28;20028;-77
2023/01/31 00:23:50;;;;;;;37.03;17.03;;;;;;;1.02;100.00;97085.56;5070082;28;20408;-77
2023/01/31 00:26:24;;;;;;;46.63;17.23;;;;;;;0.93;100.00;97076.22;5039165;28;20025;-79
2023/01/31 00:28:52;;;;;;;47.15;18.10;;;;;;;0.83;100.00;97071.31;5052181;28;20035;-76
2023/01/31 00:31:18;;;;;;;39.88;16.95;;;;;;;0.89;100.00;97076.38;5057756;28;20391;-77
2023/01/31 00:33:45;;;;;;;41.28;18.25;;;;;;;0.89;100.00;97076.38;5053927;28;20466;-76
2023/01/31 00:36:15;;;;;;;48.63;22.00;;;;;;;0.81;100.00;97073.09;5047417;28;20085;-77
2023/01/31 00:38:44;;;;;;;40.45;18.13;;;;;;;0.72;100.00;97055.84;5055608;28;20025;-77
2023/01/31 00:41:10;;;;;;;37.00;17.27;;;;;;;0.74;100.00;97061.91;5039496;28;20029;-77
2023/01/31 00:43:36;;;;;;;47.83;19.58;;;;;;;0.81;100.00;97073.09;5045872;28;20041;-77
2023/01/31 00:46:01;;;;;;;45.75;20.80;;;;;;;0.85;100.00;97075.59;5039122;28;20019;-78
2023/01/31 00:48:27;;;;;;;46.60;20.05;;;;;;;0.84;100.00;97065.09;5041063;28;20032;-78
2023/01/31 00:50:53;;;;;;;59.10;22.08;;;;;;;0.92;100.00;97076.28;5057567;28;20028;-76
2023/01/31 00:53:22;;;;;;;42.55;17.55;;;;;;;0.86;100.00;97076.47;5049742;28;20028;-77
2023/01/31 00:55:49;;;;;;;39.30;15.60;;;;;;;0.89;100.00;97074.56;5049348;28;20036;-77
2023/01/31 00:58:15;;;;;;;35.95;14.20;;;;;;;0.94;100.00;97072.69;5050508;28;20040;-77
2023/01/31 01:00:40;;;;;;;41.78;14.85;;;;;;;0.95;100.00;97063.00;5073973;28;20500;-78
2023/01/31 01:03:06;;;;;;;33.95;15.43;;;;;;;1.08;100.00;97067.81;5059828;28;20045;-77
2023/01/31 01:05:31;;;;;;;27.40;12.73;;;;;;;1.13;100.00;97070.31;5055097;28;20042;-77
2023/01/31 01:07:57;;;;;;;39.08;16.48;;;;;;;1.11;100.00;97066.00;5043243;28;20042;-77
2023/01/31 01:10:22;;;;;;;44.97;18.80;;;;;;;1.09;100.00;97059.00;5058748;28;20040;-78
2023/01/31 01:12:48;;;;;;;40.97;18.33;;;;;;;1.03;100.00;97043.41;5058292;28;20020;-78
2023/01/31 01:15:14;;;;;;;43.05;19.20;;;;;;;0.96;100.00;97046.28;5050462;28;20039;-76
2023/01/31 01:17:41;;;;;;;54.65;19.83;;;;;;;0.93;100.00;97046.38;5046503;28;20025;-77
2023/01/31 01:20:08;;;;;;;45.47;17.67;;;;;;;0.97;100.00;97058.56;5052167;28;20072;-78
2023/01/31 01:22:33;;;;;;;35.63;15.60;;;;;;;0.87;100.00;97042.19;5065629;28;20048;-78
2023/01/31 01:24:59;;;;;;;42.22;16.00;;;;;;;0.88;100.00;97058.84;5048903;28;20040;-77
2023/01/31 01:27:26;;;;;;;32.92;14.77;;;;;;;0.84;100.00;97041.41;5064725;28;20066;-78
2023/01/31 01:29:52;;;;;;;38.33;16.10;;;;;;;0.75;100.00;97057.50;5070643;28;20024;-77
2023/01/31 01:32:17;;;;;;;39.55;15.02;;;;;;;0.60;100.00;97042.19;5056347;28;20031;-77
2023/01/31 01:34:43;;;;;;;40.28;17.30;;;;;;;0.54;100.00;97045.88;5056548;28;20024;-78
2023/01/31 01:37:10;;;;;;;49.10;17.67;;;;;;;0.45;100.00;97049.66;5044669;28;20135;-77
2023/01/31 01:39:39;;;;;;;46.13;17.63;;;;;;;0.30;100.00;97052.75;5055794;28;20024;-76
2023/01/31 01:42:05;;;;;;;42.92;18.02;;;;;;;0.29;100.00;97056.28;5064509;28;20113;-78
2023/01/31 01:44:49;;;;;;;40.83;17.35;;;;;;;0.43;100.00;97061.97;5037758;28;20048;-78
2023/01/31 01:47:24;;;;;;;45.67;17.83;;;;;;;0.46;100.00;97080.28;5072552;28;20020;-77
2023/01/31 01:50:00;;;;;;;38.60;16.15;;;;;;;0.33;100.00;97071.06;5073698;28;20034;-77
2023/01/31 01:52:27;;;;;;;41.70;17.33;;;;;;;0.39;100.00;97070.88;5044669;28;20023;-78
2023/01/31 01:54:58;;;;;;;39.63;15.63;;;;;;;0.45;100.00;97070.69;5045360;28;20093;-78
2023/01/31 01:57:32;;;;;;;39.35;15.95;;;;;;;0.54;100.00;97070.41;5054187;28;20487;-77
2023/01/31 02:00:17;;;;;;;73.22;25.50;;;;;;;0.53;100.00;97068.69;5044985;28;20051;-79
2023/01/31 02:02:43;;;;;;;47.58;18.35;;;;;;;0.48;100.00;97040.81;5055732;28;20040;-78
2023/01/31 02:05:11;;;;;;;42.47;17.27;;;;;;;0.41;100.00;97034.88;5060379;28;20032;-77
2023/01/31 02:07:37;;;;;;;46.15;18.27;;;;;;;0.49;100.00;97045.16;5044279;28;20407;-77
2023/01/31 02:10:27;;;;;;;44.75;18.08;;;;;;;0.42;100.00;97041.84;5050134;28;20035;-77
2023/01/31 02:12:53;;;;;;;46.60;18.45;;;;;;;0.44;100.00;97053.19;5075165;28;20031;-77
2023/01/31 02:15:18;;;;;;;40.13;16.55;;;;;;;0.43;100.00;97046.19;5074109;28;20024;-77
2023/01/31 02:17:44;;;;;;;45.08;17.67;;;;;;;0.37;100.00;97041.13;5041737;28;20026;-76
2023/01/31 02:20:22;;;;;;;41.80;16.98;;;;;;;0.32;100.00;97045.66;5051672;28;20038;-77
2023/01/31 02:23:00;;;;;;;48.42;19.90;;;;;;;0.28;100.00;97062.44;5052323;28;20036;-78
2023/01/31 02:26:24;;;;;;;47.78;19.42;;;;;;;0.25;100.00;97073.03;5087821;28;20388;-77
2023/01/31 02:29:10;;;;;;;42.85;18.70;;;;;;;0.16;100.00;97080.31;5035580;28;20111;-77
2023/01/31 02:31:41;;;;;;;47.63;19.17;;;;;;;0.08;100.00;97091.09;5062441;28;20107;-77
2023/01/31 02:34:10;;;;;;;57.03;20.95;;;;;;;0.04;100.00;97099.94;5061903;28;20028;-76
2023/01/31 02:37:09;;;;;;;74.38;25.85;;;;;;;0.05;100.00;97112.19;5063258;28;20036;-78
2023/01/31 02:39:48;;;;;;;87.60;27.40;;;;;;;-0.11;100.00;97109.13;5039343;28;20067;-76
2023/01/31 02:42:43;;;;;;;83.15;27.88;;;;;;;-0.17;100.00;97111.91;5038130;28;20111;-78
2023/01/31 02:45:21;;;;;;;55.97;20.70;;;;;;;-0.22;100.00;97111.19;5079930;28;20405;-78
2023/01/31 02:48:24;;;;;;;57.50;21.25;;;;;;;-0.18;100.00;97143.47;5054847;28;20035;-76
2023/01/31 02:51:11;;;;;;;60.75;22.05;;;;;;;-0.30;100.00;97149.06;5032955;28;20435;-77
2023/01/31 02:53:50;;;;;;;55.10;19.42;;;;;;;-0.40;100.00;97152.84;5044715;28;20031;-78
2023/01/31 02:56:24;;;;;;;63.28;21.92;;;;;;;-0.33;100.00;97172.78;5053349;28;20510;-76
2023/01/31 02:59:00;;;;;;;53.25;21.17;;;;;;;-0.39;100.00;97157.16;5054580;28;20029;-76
2023/01/31 03:01:34;;;;;;;37.20;15.73;;;;;;;-0.29;100.00;97177.94;5045415;28;20400;-75
2023/01/31 03:04:11;;;;;;;60.40;25.63;;;;;;;-0.21;100.00;97180.34;5048099;28;20451;-76
2023/01/31 03:06:40;;;;;;;62.80;23.08;;;;;;;-0.13;100.00;97209.94;5049939;28;20024;-78
2023/01/31 03:09:27;;;;;;;73.72;29.38;;;;;;;-0.06;100.00;97201.84;5056139;28;20460;-78
2023/01/31 03:12:10;;;;;;;70.20;26.30;;;;;;;0.06;100.00;97212.94;5056909;28;20020;-76
2023/01/31 03:14:47;;;;;;;77.63;27.65;;;;;;;0.10;100.00;97215.44;5066253;28;20118;-78
2023/01/31 03:17:32;;;;;;;78.97;28.55;;;;;;;0.10;100.00;97225.97;5065963;28;20032;-77
2023/01/31 03:20:10;;;;;;;80.90;27.83;;;;;;;0.14;100.00;97219.72;5046678;28;20036;-77
2023/01/31 03:22:50;;;;;;;71.68;28.40;;;;;;;0.20;100.00;97223.97;5053632;28;20020;-77
2023/01/31 03:25:18;;;;;;;75.38;28.52;;;;;;;0.25;100.00;97225.56;5054714;28;20047;-77
2023/01/31 03:27:48;;;;;;;76.15;25.98;;;;;;;0.25;100.00;97215.03;5073117;28;20096;-77
2023/01/31 03:30:20;;;;;;;80.10;27.73;;;;;;;0.26;100.00;97216.78;5039283;28;20075;-78
2023/01/31 03:32:53;;;;;;;64.82;25.73;;;;;;;0.25;100.00;97194.00;5071417;28;20035;-77
2023/01/31 03:35:20;;;;;;;60.15;24.00;;;;;;;0.17;100.00;97187.22;5048989;28;20438;-77
2023/01/31 03:38:04;;;;;;;67.47;23.83;;;;;;;0.09;100.00;97187.44;5056405;28;20061;-76
2023/01/31 03:40:37;;;;;;;43.50;18.52;;;;;;;-0.02;100.00;97179.84;5071085;28;20035;-77
2023/01/31 03:43:14;;;;;;;44.00;17.92;;;;;;;0.03;100.00;97190.25;5064202;28;20032;-77
2023/01/31 03:45:53;;;;;;;40.78;15.35;;;;;;;-0.02;100.00;97185.09;5036162;28;20071;-77
2023/01/31 03:48:21;;;;;;;29.55;12.98;;;;;;;0.01;100.00;97181.50;5036276;28;20467;-77
2023/01/31 03:50:51;;;;;;;29.77;12.02;;;;;;;0.05;100.00;97164.78;5046822;28;20071;-78
2023/01/31 03:53:21;;;;;;;33.08;13.27;;;;;;;-0.02;100.00;97168.44;5048532;28;20012;-76
2023/01/31 03:55:47;;;;;;;42.60;16.55;;;;;;;-0.09;100.00;97194.03;5054574;28;20086;-75
2023/01/31 03:58:14;;;;;;;41.53;15.23;;;;;;;-0.12;100.00;97188.84;5076497;28;20036;-78
2023/01/31 04:00:41;;;;;;;36.70;13.35;;;;;;;-0.07;100.00;97199.25;5056079;28;20036;-78
2023/01/31 04:03:16;;;;;;;37.60;15.07;;;;;;;-0.14;100.00;97193.28;5039980;28;20428;-77
2023/01/31 04:05:42;;;;;;;42.85;18.17;;;;;;;-0.14;100.00;97206.44;5036334;28;20517;-77
2023/01/31 04:08:07;;;;;;;50.15;18.75;;;;;;;-0.22;100.00;97218.06;5044531;28;20040;-83
2023/01/31 04:10:33;;;;;;;50.75;21.88;;;;;;;-0.24;100.00;97211.94;5045766;28;20021;-83
2023/01/31 04:13:00;;;;;;;52.88;21.05;;;;;;;-0.29;100.00;97212.06;5062361;28;20029;-84
2023/01/31 04:15:25;;;;;;;50.13;19.63;;;;;;;-0.22;100.00;97220.69;5053515;28;20068;-82
2023/01/31 04:17:51;;;;;;;55.33;19.88;;;;;;;-0.19;100.00;97223.22;5056560;28;20048;-82
2023/01/31 04:20:17;;;;;;;52.13;20.00;;;;;;;-0.15;100.00;97240.63;5037273;28;20036;-84
2023/01/31 04:22:42;;;;;;;90.70;33.83;;;;;;;-0.21;100.00;97223.25;5045123;28;20036;-83
2023/01/31 04:25:08;;;;;;;96.05;36.42;;;;;;;-0.17;100.00;97234.56;5039521;28;20025;-83
2023/01/31 04:27:33;;;;;;;89.50;31.92;;;;;;;-0.11;100.00;97237.03;5058794;28;20025;-82
2023/01/31 04:30:32;;;;;;;89.60;30.80;;;;;;;-0.01;100.00;97249.03;5043818;28;20432;-84
2023/01/31 04:35:55;;;;;;;78.72;33.67;;;;;;;0.01;100.00;97247.22;4964382;28;20042;-83
2023/01/31 04:39:02;;;;;;;81.38;28.48;;;;;;;-0.10;100.00;97218.59;5006893;28;20111;-82
2023/01/31 04:41:28;;;;;;;64.82;26.55;;;;;;;0.04;100.00;97220.88;5009287;28;20037;-83
2023/01/31 04:44:12;;;;;;;58.28;23.67;;;;;;;0.30;100.00;97238.59;5015797;28;20021;-85
2023/01/31 04:46:37;;;;;;;61.10;22.52;;;;;;;0.30;100.00;97233.34;5031697;28;20029;-83
2023/01/31 04:49:03;;;;;;;52.45;21.23;;;;;;;0.32;100.00;97221.88;5015689;28;20404;-82
2023/01/31 04:51:28;;;;;;;27.33;9.32;;;;;;;0.40;100.00;97219.03;4998894;28;20099;-82
2023/01/31 04:53:57;;;;;;;27.73;12.88;;;;;;;0.43;100.00;97211.91;4998556;28;20032;-82
2023/01/31 04:56:22;;;;;;;36.38;14.60;;;;;;;0.44;100.00;97200.47;4998316;28;20034;-81
2023/01/31 04:58:48;;;;;;;35.05;13.45;;;;;;;0.41;100.00;97182.16;5014650;28;20091;-80
2023/01/31 05:01:14;;;;;;;34.45;12.98;;;;;;;0.41;100.00;97179.53;4998058;28;20033;-82
2023/01/31 05:04:25;;;;;;;29.60;12.00;;;;;;;0.33;100.00;97165.75;5014722;28;20505;-82
2023/01/31 05:06:54;;;;;;;26.88;11.43;;;;;;;0.48;100.00;97188.97;5021871;28;20045;-81
2023/01/31 05:09:23;;;;;;;31.38;13.60;;;;;;;0.38;100.00;97155.94;5034104;28;20029;-83
2023/01/31 05:11:50;;;;;;;34.08;12.63;;;;;;;0.60;100.00;97195.66;5028450;28;20029;-83
2023/01/31 05:14:16;;;;;;;23.00;9.25;;;;;;;0.59;100.00;97193.06;5049632;28;20044;-82
2023/01/31 05:16:46;;;;;;;34.38;15.68;;;;;;;0.59;100.00;97209.72;5026837;28;20079;-81
2023/01/31 05:19:13;;;;;;;38.38;14.68;;;;;;;0.40;100.00;97205.88;5016328;28;20142;-83
2023/01/31 05:21:53;;;;;;;33.63;14.40;;;;;;;0.14;100.00;97182.91;5024324;28;20044;-83
2023/01/31 05:24:21;;;;;;;33.20;14.75;;;;;;;0.24;100.00;97222.97;5028424;28;20444;-83
2023/01/31 05:26:49;;;;;;;36.22;15.60;;;;;;;0.14;100.00;97232.00;5023750;28;20036;-82
2023/01/31 05:29:15;;;;;;;35.17;14.10;;;;;;;0.12;100.00;97237.31;5033632;28;20060;-84
2023/01/31 05:31:40;;;;;;;26.65;11.70;;;;;;;0.14;100.00;97263.56;5027888;28;20083;-85
2023/01/31 05:34:07;;;;;;;39.70;15.15;;;;;;;0.15;100.00;97270.56;5029203;28;20044;-84
2023/01/31 05:36:33;;;;;;;44.20;16.05;;;;;;;0.05;100.00;97259.41;5025725;28;20542;-84
2023/01/31 05:38:58;;;;;;;75.63;25.48;;;;;;;0.07;100.00;97257.59;5026251;28;20036;-85
2023/01/31 05:41:24;;;;;;;104.28;35.47;;;;;;;0.19;100.00;97273.03;5037423;28;20041;-84
2023/01/31 05:43:49;;;;;;;236.45;84.32;;;;;;;0.22;100.00;97270.34;5025662;28;20013;-83
2023/01/31 05:46:15;;;;;;;109.93;38.13;;;;;;;0.29;100.00;97274.53;5021691;28;20052;-84
2023/01/31 05:48:40;;;;;;;64.22;25.90;;;;;;;0.35;100.00;97281.41;5020869;28;20481;-83
2023/01/31 05:51:06;;;;;;;86.00;34.78;;;;;;;0.44;100.00;97282.03;5031079;28;20033;-83
2023/01/31 05:53:31;;;;;;;92.65;35.67;;;;;;;0.47;100.00;97274.06;5026349;28;20032;-83
2023/01/31 05:55:56;;;;;;;61.88;27.50;;;;;;;0.45;100.00;97278.50;5025045;28;20405;-84
2023/01/31 05:58:22;;;;;;;70.22;29.42;;;;;;;0.54;100.00;97274.75;5036770;28;20029;-82
2023/01/31 06:00:47;;;;;;;100.95;42.40;;;;;;;0.45;100.00;97272.38;5025557;28;20029;-82
2023/01/31 06:03:13;;;;;;;96.65;40.67;;;;;;;0.60;100.00;97279.00;5050322;28;20095;-84
2023/01/31 06:05:39;;;;;;;86.15;37.05;;;;;;;0.61;100.00;97272.84;5040885;28;20024;-78
2023/01/31 06:08:05;;;;;;;94.72;39.50;;;;;;;0.71;100.00;97280.41;5062560;28;20059;-78
2023/01/31 06:10:31;;;;;;;63.75;26.60;;;;;;;0.69;100.00;97279.59;5037339;28;20122;-80
2023/01/31 06:12:56;;;;;;;93.88;38.70;;;;;;;0.66;100.00;97282.31;5041724;28;20500;-79
2023/01/31 06:15:22;;;;;;;86.28;35.17;;;;;;;0.66;100.00;97284.06;5043531;28;20487;-79
2023/01/31 06:17:47;;;;;;;95.85;38.88;;;;;;;0.64;100.00;97280.63;5046005;28;20029;-79
2023/01/31 06:20:13;;;;;;;101.05;38.08;;;;;;;0.61;100.00;97272.84;5053315;28;20037;-78
2023/01/31 06:22:39;;;;;;;113.70;44.78;;;;;;;0.64;100.00;97280.63;5036524;28;20503;-78
2023/01/31 06:25:05;;;;;;;120.88;48.33;;;;;;;0.77;100.00;97295.19;5036254;28;20024;-79
2023/01/31 06:27:32;;;;;;;109.95;43.88;;;;;;;0.76;100.00;97285.56;5050390;28;20029;-79
2023/01/31 06:29:57;;;;;;;108.07;45.25;;;;;;;0.80;100.00;97290.69;5041592;28;20029;-79
2023/01/31 06:32:23;;;;;;;107.18;45.47;;;;;;;0.91;100.00;97296.53;5044431;28;20029;-78
2023/01/31 06:34:48;;;;;;;111.68;48.28;;;;;;;0.90;100.00;97288.66;5051923;28;20029;-79
2023/01/31 06:37:14;;;;;;;190.90;70.07;;;;;;;1.07;100.00;97281.16;5059003;28;20467;-78
2023/01/31 06:39:39;;;;;;;163.45;59.60;;;;;;;1.26;100.00;97281.50;5050643;28;20033;-79
2023/01/31 06:42:05;;;;;;;102.78;41.85;;;;;;;1.36;100.00;97264.47;5069508;28;20043;-78
2023/01/31 06:44:32;;;;;;;108.57;45.00;;;;;;;1.38;100.00;97250.38;5045203;28;20599;-79
2023/01/31 06:47:01;;;;;;;95.30;40.20;;;;;;;1.95;100.00;97273.16;5042534;28;20094;-78
2023/01/31 06:49:26;;;;;;;41.83;17.85;;;;;;;2.61;100.00;97246.28;5037147;28;20051;-78
2023/01/31 06:51:52;;;;;;;91.60;40.15;;;;;;;2.72;100.00;97205.34;5039553;28;20064;-78
2023/01/31 06:54:17;;;;;;;94.88;41.85;;;;;;;3.92;100.00;97228.88;5039587;28;20439;-78
2023/01/31 06:56:43;;;;;;;84.78;36.75;;;;;;;5.72;100.00;97231.41;5035986;28;20376;-79
2023/01/31 06:59:09;;;;;;;94.80;41.78;;;;;;;6.88;100.00;97156.41;5033146;28;20025;-78
2023/01/31 07:01:35;;;;;;;70.03;32.65;;;;;;;7.88;100.00;97140.13;5040400;28;20094;-78
2023/01/31 07:04:00;;;;;;;87.00;42.10;;;;;;;8.33;93.89;97107.31;5045111;28;20040;-80
2023/01/31 07:06:26;;;;;;;59.78;27.27;;;;;;;7.60;92.13;97061.00;5056220;28;20107;-79
2023/01/31 07:08:51;;;;;;;40.83;21.20;;;;;;;7.07;93.55;97049.91;5055152;28;20025;-79
2023/01/31 07:11:17;;;;;;;57.50;30.38;;;;;;;6.24;97.32;97036.78;5041519;28;20024;-78
2023/01/31 07:13:44;;;;;;;107.60;49.88;;;;;;;4.69;100.00;97046.31;5044450;28;20024;-79
2023/01/31 07:16:10;;;;;;;101.00;45.08;;;;;;;4.19;100.00;97069.81;5047842;28;20020;-79
2023/01/31 07:18:36;;;;;;;96.57;42.17;;;;;;;4.13;100.00;97079.78;5052858;28;20081;-77
2023/01/31 07:21:01;;;;;;;93.97;42.50;;;;;;;4.04;100.00;97088.13;5052627;28;20483;-78
2023/01/31 07:23:27;;;;;;;89.38;40.22;;;;;;;3.87;100.00;97090.66;5052341;28;20100;-78
2023/01/31 07:25:52;;;;;;;64.53;30.20;;;;;;;3.64;100.00;97076.63;5041908;28;20483;-78
2023/01/31 07:28:18;;;;;;;85.25;37.53;;;;;;;3.48;100.00;97074.69;5068466;28;20086;-79
2023/01/31 07:30:45;;;;;;;77.22;33.17;;;;;;;3.31;100.00;97070.09;5052177;28;20031;-78
2023/01/31 07:33:11;;;;;;;69.03;29.98;;;;;;;3.53;100.00;97100.03;5039340;28;20107;-79
2023/01/31 07:35:36;;;;;;;68.03;29.00;;;;;;;3.56;100.00;97096.38;5052097;28;20055;-78
2023/01/31 07:38:02;;;;;;;62.67;29.55;;;;;;;3.66;100.00;97085.34;5048887;28;20475;-77
2023/01/31 07:40:27;;;;;;;68.97;30.48;;;;;;;3.64;100.00;97076.63;5062104;28;20073;-76
2023/01/31 07:42:59;;;;;;;55.03;25.15;;;;;;;3.82;100.00;97097.00;5049655;28;20063;-77
2023/01/31 07:45:25;;;;;;;;;;;;;;;3.97;100.00;97090.19;5036273;28;20100;-77
2023/01/31 07:47:51;;;;;;;63.00;28.00;;;;;;;4.14;100.00;97081.53;5058349;28;19912;-77
2023/01/31 07:50:18;;;;;;;125.57;54.45;;;;;;;4.02;100.00;97090.00;5049819;28;20036;-77
2023/01/31 07:52:43;;;;;;;111.10;48.33;;;;;;;4.10;100.00;97106.38;5058323;28;20506;-77
2023/01/31 07:55:09;;;;;;;108.95;51.28;;;;;;;4.20;100.00;97107.72;5049674;28;20059;-77
2023/01/31 07:57:35;;;;;;;105.78;49.03;;;;;;;4.04;100.00;97101.38;5049857;28;20023;-78
2023/01/31 08:00:00;;;;;;;126.32;54.42;;;;;;;4.24;100.00;97109.31;5066311;28;20028;-77
2023/01/31 08:05:10;;;;;;;93.95;42.13;;;;;;;4.31;100.00;97094.84;5067398;28;20061;-78
2023/01/31 08:07:36;;;;;;;63.55;27.10;;;;;;;4.33;100.00;97098.31;5070038;28;20103;-76
2023/01/31 08:10:02;;;;;;;41.13;18.95;;;;;;;3.81;100.00;97084.69;5067153;28;20028;-77
2023/01/31 08:12:28;;;;;;;43.42;19.65;;;;;;;3.69;100.00;97098.44;5044786;28;20016;-77
2023/01/31 08:14:53;;;;;;;51.47;22.27;;;;;;;3.68;100.00;97104.66;5056159;28;20047;-78
2023/01/31 08:17:19;;;;;;;54.42;22.92;;;;;;;3.70;100.00;97105.44;5039113;28;20024;-77
2023/01/31 08:19:44;;;;;;;54.53;23.00;;;;;;;3.81;100.00;97097.91;5047965;28;20024;-78
2023/01/31 08:22:10;;;;;;;54.55;22.08;;;;;;;3.84;100.00;97100.44;5065664;28;20068;-77
2023/01/31 08:24:36;;;;;;;54.55;23.23;;;;;;;3.72;100.00;97100.94;5049749;28;20035;-77
2023/01/31 08:27:01;;;;;;;46.08;20.88;;;;;;;3.86;100.00;97107.44;5049707;28;20032;-77
2023/01/31 08:29:27;;;;;;;50.42;22.17;;;;;;;3.91;100.00;97102.84;5052920;28;20083;-76
2023/01/31 08:31:53;;;;;;;74.50;28.42;;;;;;;4.14;100.00;97100.91;5048919;28;20498;-76
2023/01/31 08:34:19;;;;;;;56.55;26.77;;;;;;;4.28;100.00;97098.50;5040894;28;20032;-77
2023/01/31 08:36:45;;;;;;;78.10;33.70;;;;;;;4.50;100.00;97095.75;5053409;28;20035;-78
2023/01/31 08:39:10;;;;;;;79.38;33.03;;;;;;;4.91;100.00;97096.50;5042829;28;20041;-77
2023/01/31 08:41:37;;;;;;;77.90;37.20;;;;;;;5.17;100.00;97087.34;5061933;28;20031;-78
2023/01/31 08:44:04;;;;;;;78.93;36.33;;;;;;;5.36;100.00;97072.22;5042924;28;20067;-78
2023/01/31 08:46:31;;;;;;;59.75;29.75;;;;;;;5.52;100.00;97067.03;5072312;28;20020;-78
2023/01/31 08:48:57;;;;;;;51.30;24.02;;;;;;;5.45;100.00;97061.16;5060150;28;20075;-77
2023/01/31 08:51:23;;;;;;;66.22;24.45;;;;;;;5.48;100.00;97064.53;5067466;28;20032;-77
2023/01/31 08:53:49;;;;;;;54.83;24.83;;;;;;;5.60;100.00;97081.63;5050213;28;20028;-76
2023/01/31 08:56:15;;;;;;;48.58;22.55;;;;;;;5.76;100.00;97066.66;5065207;28;20028;-76
2023/01/31 08:58:42;;;;;;;48.60;24.25;;;;;;;6.02;100.00;97072.47;5048599;28;20031;-75
2023/01/31 09:01:13;;;;;;;57.95;25.95;;;;;;;6.24;100.00;97057.16;5066800;28;20411;-76
2023/01/31 09:03:39;;;;;;;55.28;23.88;;;;;;;6.47;100.00;97038.19;5062438;28;20117;-78
2023/01/31 09:06:10;;;;;;;75.72;32.13;;;;;;;6.62;100.00;97037.34;5062521;28;20020;-78
2023/01/31 09:08:35;;;;;;;49.58;21.77;;;;;;;6.75;97.53;97017.13;5044083;28;20031;-78
2023/01/31 09:11:01;;;;;;;43.63;20.40;;;;;;;6.77;94.62;97014.38;5054169;28;20118;-77
2023/01/31 09:13:28;;;;;;;50.13;24.55;;;;;;;6.77;92.67;97015.25;5050301;28;20437;-78
2023/01/31 09:16:01;;;;;;;43.35;20.02;;;;;;;6.73;96.75;97024.34;5055712;28;20024;-77
2023/01/31 09:18:28;;;;;;;36.25;16.75;;;;;;;6.75;98.11;97026.91;5055936;28;20495;-78
2023/01/31 09:20:54;;;;;;;32.28;15.38;;;;;;;6.65;99.11;97033.66;5038812;28;20063;-78
2023/01/31 09:23:19;;;;;;;27.02;14.07;;;;;;;6.53;99.85;97038.72;5055811;28;20326;-77
2023/01/31 09:25:53;;;;;;;23.83;11.90;;;;;;;6.53;100.00;97038.72;5050141;28;20032;-78
2023/01/31 09:28:18;;;;;;;26.13;10.45;;;;;;;6.55;100.00;97042.13;5049266;28;20029;-79
2023/01/31 09:30:44;;;;;;;20.20;10.43;;;;;;;6.66;100.00;97043.34;5057823;28;20046;-77
2023/01/31 09:33:09;;;;;;;25.70;13.20;;;;;;;6.66;96.87;97025.63;5051272;28;20471;-77
2023/01/31 09:35:35;;;;;;;26.55;11.63;;;;;;;6.56;89.53;97005.81;5072121;28;20027;-79
2023/01/31 09:38:00;;;;;;;23.60;11.55;;;;;;;6.51;90.30;97008.72;5041305;28;20235;-77
2023/01/31 09:40:29;;;;;;;30.67;14.57;;;;;;;6.36;91.27;97009.56;5045630;28;20435;-78
2023/01/31 09:42:55;;;;;;;16.50;8.13;;;;;;;6.33;86.34;96990.28;5046267;28;20028;-78
2023/01/31 09:45:32;;;;;;;48.65;23.35;;;;;;;6.38;90.93;97007.66;5043594;28;20082;-79
2023/01/31 09:47:59;;;;;;;43.40;20.17;;;;;;;6.21;94.79;97030.75;5062511;28;20124;-77
2023/01/31 09:50:29;;;;;;;55.90;24.38;;;;;;;6.04;98.29;97044.03;5049676;28;20441;-78
2023/01/31 09:52:54;;;;;;;43.85;21.50;;;;;;;5.95;97.43;97045.38;5052600;28;20024;-78
2023/01/31 09:55:26;;;;;;;51.20;19.42;;;;;;;5.83;98.15;97052.16;5051784;28;20032;-78
2023/01/31 09:58:06;;;;;;;52.03;20.63;;;;;;;5.79;99.95;97077.13;5079736;28;20037;-79
2023/01/31 10:00:51;;;;;;;49.55;21.98;;;;;;;5.74;100.00;97063.25;5051453;28;20491;-78
2023/01/31 10:03:41;;;;;;;42.92;18.80;;;;;;;5.71;100.00;97070.50;5071708;28;20040;-78
2023/01/31 10:06:25;;;;;;;31.98;16.10;;;;;;;5.75;100.00;97083.50;5060434;28;20024;-78
2023/01/31 10:09:14;;;;;;;44.10;20.63;;;;;;;5.74;100.00;97079.16;5092468;28;20055;-78
2023/01/31 10:11:51;;;;;;;52.75;26.23;;;;;;;5.71;100.00;97071.34;5051966;28;20060;-78
2023/01/31 10:14:32;;;;;;;41.17;19.20;;;;;;;5.85;98.39;97068.88;5051885;28;20406;-79
2023/01/31 10:17:19;;;;;;;79.07;31.92;;;;;;;5.83;100.00;97080.47;5054457;28;20024;-79
2023/01/31 10:20:02;;;;;;;59.67;26.48;;;;;;;5.66;100.00;97070.69;5065399;28;20034;-78
2023/01/31 10:22:34;;;;;;;55.05;23.25;;;;;;;5.61;100.00;97078.03;5051132;28;20024;-79
2023/01/31 10:25:23;;;;;;;85.05;34.60;;;;;;;5.64;100.00;97079.69;5053593;28;20028;-77
2023/01/31 10:27:55;;;;;;;64.82;28.35;;;;;;;5.63;100.00;97068.22;5079554;28;20032;-78
2023/01/31 10:30:25;;;;;;;98.38;35.08;;;;;;;5.62;99.40;97063.84;5045456;28;20101;-77
2023/01/31 10:32:57;;;;;;;91.18;37.75;;;;;;;5.64;100.00;97069.06;5060993;28;20016;-77
2023/01/31 10:35:24;;;;;;;;;;;;;;;5.76;100.00;97082.59;5049169;28;20059;-78
2023/01/31 10:37:55;;;;;;;75.80;36.13;;;;;;;5.68;100.00;97068.00;5048720;28;19912;-78
2023/01/31 10:40:35;;;;;;;49.55;22.10;;;;;;;5.46;100.00;97061.09;5057244;28;20035;-77
2023/01/31 10:43:19;;;;;;;31.77;15.60;;;;;;;5.42;100.00;97066.63;5073512;28;20119;-78
2023/01/31 10:45:44;;;;;;;46.17;21.95;;;;;;;5.42;100.00;97079.88;5046601;28;20028;-77
2023/01/31 10:48:15;;;;;;;77.55;36.33;;;;;;;5.44;100.00;97083.34;5037993;28;20496;-79
2023/01/31 10:50:57;;;;;;;99.97;40.08;;;;;;;5.43;100.00;97087.78;5042426;28;20487;-78
2023/01/31 10:53:47;;;;;;;128.35;47.83;;;;;;;5.49;100.00;97089.25;5056357;28;20127;-78
2023/01/31 10:56:35;;;;;;;91.55;36.38;;;;;;;5.61;100.00;97088.66;5055363;28;20032;-78
2023/01/31 10:59:04;;;;;;;38.58;18.27;;;;;;;5.76;100.00;97071.97;5067888;28;20032;-77
2023/01/31 11:01:30;;;;;;;47.63;21.13;;;;;;;5.94;100.00;97064.88;5054806;28;20171;-78
2023/01/31 11:03:56;;;;;;;48.47;21.85;;;;;;;6.16;100.00;97054.03;5043679;28;20128;-77
2023/01/31 11:06:22;;;;;;;13.23;6.63;;;;;;;6.16;89.48;97022.16;5052899;28;20032;-77
2023/01/31 11:09:08;;;;;;;10.95;5.88;;;;;;;6.16;87.77;97016.84;5046401;28;20024;-77
2023/01/31 11:11:52;;;;;;;9.30;5.60;;;;;;;6.16;88.72;97020.38;5061946;28;20027;-78
2023/01/31 11:14:18;;;;;;;10.15;5.57;;;;;;;6.15;88.62;97017.81;5061299;28;20048;-77
2023/01/31 11:16:44;;;;;;;9.70;5.82;;;;;;;6.19;87.12;97016.69;5036000;28;20055;-78
2023/01/31 11:19:21;;;;;;;12.40;6.63;;;;;;;6.29;88.37;97026.75;5044632;28;20025;-78
2023/01/31 11:21:51;;;;;;;21.45;10.73;;;;;;;6.21;89.35;97014.81;5061112;28;20028;-78
2023/01/31 11:24:21;;;;;;;11.43;5.80;;;;;;;5.90;84.36;97003.19;5044362;28;20428;-78
2023/01/31 11:26:54;;;;;;;13.25;6.68;;;;;;;5.97;85.48;97011.66;5050215;28;20101;-79
2023/01/31 11:29:46;;;;;;;13.82;7.93;;;;;;;6.08;86.91;97024.38;5052504;28;20048;-79
2023/01/31 11:32:23;;;;;;;10.90;5.78;;;;;;;5.86;84.91;97003.41;5047313;28;20039;-79
2023/01/31 11:35:14;;;;;;;7.88;5.05;;;;;;;5.96;85.57;97017.91;5045533;28;20036;-78
2023/01/31 11:37:53;;;;;;;8.40;4.72;;;;;;;6.01;83.46;97023.84;5056062;28;20021;-78